sensor_id;sensor_type;location;lat;lon;timestamp;P1;durP1;ratioP1;P2;durP2;ratioP2
62915;SDS011;49010;51.230;-2.306;2022-08-07T00:01:30;12.05;;;7.78;;
62915;SDS011;49010;51.230;-2.306;2022-08-07T00:05:32;11.85;;;7.32;;
62915;SDS011;49010;51.230;-2.306;2022-08-07T00:09:16;9.45;;;6.80;;
62915;SDS011;49010;51.230;-2.306;2022-08-07T00:13:03;10.83;;;7.63;;
62915;SDS011;49010;51.230;-2.306;2022-08-07T00:17:04;9.70;;;5.85;;
62915;SDS011;49010;51.230;-2.306;2022-08-07T00:20:47;9.95;;;6.78;;
62915;SDS011;49010;51.230;-2.306;2022-08-07T00:24:32;8.45;;;6.25;;
62915;SDS011;49010;51.230;-2.306;2022-08-07T00:28:16;8.95;;;6.70;;
62915;SDS011;49010;51.230;-2.306;2022-08-07T00:32:02;8.40;;;6.90;;
62915;SDS011;49010;51.230;-2.306;2022-08-07T00:35:46;9.93;;;7.38;;
62915;SDS011;49010;51.230;-2.306;2022-08-07T00:39:30;12.63;;;7.45;;
62915;SDS011;49010;51.230;-2.306;2022-08-07T00:43:12;9.20;;;6.45;;
62915;SDS011;49010;51.230;-2.306;2022-08-07T00:47:14;12.85;;;6.75;;
62915;SDS011;49010;51.230;-2.306;2022-08-07T00:51:16;12.25;;;6.35;;
62915;SDS011;49010;51.230;-2.306;2022-08-07T00:54:58;10.65;;;6.35;;
62915;SDS011;49010;51.230;-2.306;2022-08-07T00:58:50;9.35;;;5.95;;
62915;SDS011;49010;51.230;-2.306;2022-08-07T01:02:33;7.70;;;5.60;;
62915;SDS011;49010;51.230;-2.306;2022-08-07T01:06:19;8.48;;;5.53;;
62915;SDS011;49010;51.230;-2.306;2022-08-07T01:10:02;7.70;;;5.40;;
62915;SDS011;49010;51.230;-2.306;2022-08-07T01:13:51;8.95;;;5.78;;
62915;SDS011;49010;51.230;-2.306;2022-08-07T01:17:36;8.10;;;5.47;;
62915;SDS011;49010;51.230;-2.306;2022-08-07T01:21:20;8.68;;;6.15;;
62915;SDS011;49010;51.230;-2.306;2022-08-07T01:25:09;8.50;;;5.50;;
62915;SDS011;49010;51.230;-2.306;2022-08-07T01:29:11;12.77;;;5.97;;
62915;SDS011;49010;51.230;-2.306;2022-08-07T01:32:54;9.57;;;6.25;;
62915;SDS011;49010;51.230;-2.306;2022-08-07T01:36:38;10.25;;;7.20;;
62915;SDS011;49010;51.230;-2.306;2022-08-07T01:40:21;10.38;;;7.15;;
62915;SDS011;49010;51.230;-2.306;2022-08-07T01:44:05;9.30;;;6.68;;
62915;SDS011;49010;51.230;-2.306;2022-08-07T01:47:47;13.52;;;7.03;;
62915;SDS011;49010;51.230;-2.306;2022-08-07T01:51:49;10.75;;;6.10;;
62915;SDS011;49010;51.230;-2.306;2022-08-07T01:55:46;11.57;;;5.88;;
62915;SDS011;49010;51.230;-2.306;2022-08-07T01:59:45;11.65;;;6.13;;
62915;SDS011;49010;51.230;-2.306;2022-08-07T02:03:34;6.47;;;4.72;;
62915;SDS011;49010;51.230;-2.306;2022-08-07T02:07:32;10.70;;;4.97;;
62915;SDS011;49010;51.230;-2.306;2022-08-07T02:11:32;8.38;;;5.47;;
62915;SDS011;49010;51.230;-2.306;2022-08-07T02:15:38;7.25;;;4.88;;
62915;SDS011;49010;51.230;-2.306;2022-08-07T02:19:21;9.70;;;5.38;;
62915;SDS011;49010;51.230;-2.306;2022-08-07T02:23:25;9.55;;;6.70;;
62915;SDS011;49010;51.230;-2.306;2022-08-07T02:27:07;8.63;;;6.30;;
62915;SDS011;49010;51.230;-2.306;2022-08-07T02:30:53;9.15;;;6.22;;
62915;SDS011;49010;51.230;-2.306;2022-08-07T02:34:37;9.15;;;6.30;;
62915;SDS011;49010;51.230;-2.306;2022-08-07T02:38:32;8.60;;;6.32;;
62915;SDS011;49010;51.230;-2.306;2022-08-07T02:42:17;9.05;;;5.82;;
62915;SDS011;49010;51.230;-2.306;2022-08-07T02:46:00;8.95;;;5.47;;
62915;SDS011;49010;51.230;-2.306;2022-08-07T02:49:44;9.25;;;5.30;;
62915;SDS011;49010;51.230;-2.306;2022-08-07T02:53:40;7.20;;;4.95;;
62915;SDS011;49010;51.230;-2.306;2022-08-07T02:57:25;7.90;;;4.88;;
62915;SDS011;49010;51.230;-2.306;2022-08-07T03:01:11;10.15;;;6.15;;
62915;SDS011;49010;51.230;-2.306;2022-08-07T03:05:13;9.63;;;6.30;;
62915;SDS011;49010;51.230;-2.306;2022-08-07T03:09:03;13.70;;;5.93;;
62915;SDS011;49010;51.230;-2.306;2022-08-07T03:12:51;8.70;;;5.75;;
62915;SDS011;49010;51.230;-2.306;2022-08-07T03:16:35;11.48;;;5.95;;
62915;SDS011;49010;51.230;-2.306;2022-08-07T03:20:18;9.70;;;6.10;;
62915;SDS011;49010;51.230;-2.306;2022-08-07T03:24:00;8.18;;;5.57;;
62915;SDS011;49010;51.230;-2.306;2022-08-07T03:28:02;9.98;;;6.15;;
62915;SDS011;49010;51.230;-2.306;2022-08-07T03:32:06;10.02;;;5.45;;
62915;SDS011;49010;51.230;-2.306;2022-08-07T03:35:53;9.05;;;6.10;;
62915;SDS011;49010;51.230;-2.306;2022-08-07T03:39:36;9.05;;;4.82;;
62915;SDS011;49010;51.230;-2.306;2022-08-07T03:43:39;7.15;;;4.47;;
62915;SDS011;49010;51.230;-2.306;2022-08-07T03:47:37;8.52;;;4.82;;
62915;SDS011;49010;51.230;-2.306;2022-08-07T03:51:31;9.20;;;4.65;;
62915;SDS011;49010;51.230;-2.306;2022-08-07T03:55:27;5.57;;;3.63;;
62915;SDS011;49010;51.230;-2.306;2022-08-07T03:59:30;8.32;;;4.00;;
62915;SDS011;49010;51.230;-2.306;2022-08-07T04:03:13;6.88;;;4.85;;
62915;SDS011;49010;51.230;-2.306;2022-08-07T04:06:58;5.15;;;3.85;;
62915;SDS011;49010;51.230;-2.306;2022-08-07T04:10:41;8.07;;;4.40;;
62915;SDS011;49010;51.230;-2.306;2022-08-07T04:14:44;7.45;;;4.47;;
62915;SDS011;49010;51.230;-2.306;2022-08-07T04:18:29;5.15;;;3.67;;
62915;SDS011;49010;51.230;-2.306;2022-08-07T04:22:31;6.00;;;3.67;;
62915;SDS011;49010;51.230;-2.306;2022-08-07T04:26:13;7.05;;;4.10;;
62915;SDS011;49010;51.230;-2.306;2022-08-07T04:30:01;7.72;;;4.10;;
62915;SDS011;49010;51.230;-2.306;2022-08-07T04:33:53;8.93;;;4.18;;
62915;SDS011;49010;51.230;-2.306;2022-08-07T04:37:36;7.05;;;3.80;;
62915;SDS011;49010;51.230;-2.306;2022-08-07T04:41:39;5.32;;;3.65;;
62915;SDS011;49010;51.230;-2.306;2022-08-07T04:45:22;7.05;;;3.85;;
62915;SDS011;49010;51.230;-2.306;2022-08-07T05:01:56;5.93;;;3.88;;
62915;SDS011;49010;51.230;-2.306;2022-08-07T05:05:57;8.13;;;4.00;;
62915;SDS011;49010;51.230;-2.306;2022-08-07T05:18:28;6.63;;;3.58;;
62915;SDS011;49010;51.230;-2.306;2022-08-07T05:22:12;5.20;;;3.60;;
62915;SDS011;49010;51.230;-2.306;2022-08-07T05:26:12;7.07;;;3.83;;
62915;SDS011;49010;51.230;-2.306;2022-08-07T05:30:04;5.85;;;3.65;;
62915;SDS011;49010;51.230;-2.306;2022-08-07T05:33:50;6.75;;;3.55;;
62915;SDS011;49010;51.230;-2.306;2022-08-07T05:37:46;8.32;;;4.80;;
62915;SDS011;49010;51.230;-2.306;2022-08-07T05:41:48;6.97;;;3.72;;
62915;SDS011;49010;51.230;-2.306;2022-08-07T05:45:43;7.15;;;4.30;;
62915;SDS011;49010;51.230;-2.306;2022-08-07T05:49:28;7.30;;;4.18;;
62915;SDS011;49010;51.230;-2.306;2022-08-07T05:53:21;5.47;;;3.92;;
62915;SDS011;49010;51.230;-2.306;2022-08-07T05:57:23;7.70;;;3.38;;
62915;SDS011;49010;51.230;-2.306;2022-08-07T06:01:10;6.78;;;3.70;;
62915;SDS011;49010;51.230;-2.306;2022-08-07T06:04:56;5.53;;;3.58;;
62915;SDS011;49010;51.230;-2.306;2022-08-07T06:08:43;7.15;;;3.53;;
62915;SDS011;49010;51.230;-2.306;2022-08-07T06:12:27;7.35;;;3.72;;
62915;SDS011;49010;51.230;-2.306;2022-08-07T06:16:13;7.13;;;3.87;;
62915;SDS011;49010;51.230;-2.306;2022-08-07T06:19:56;6.10;;;3.70;;
62915;SDS011;49010;51.230;-2.306;2022-08-07T06:23:44;6.28;;;3.33;;
62915;SDS011;49010;51.230;-2.306;2022-08-07T06:27:46;8.13;;;3.85;;
62915;SDS011;49010;51.230;-2.306;2022-08-07T06:31:42;6.13;;;3.67;;
62915;SDS011;49010;51.230;-2.306;2022-08-07T06:35:31;5.72;;;3.50;;
62915;SDS011;49010;51.230;-2.306;2022-08-07T06:43:29;5.80;;;3.38;;
62915;SDS011;49010;51.230;-2.306;2022-08-07T06:47:26;5.15;;;2.88;;
62915;SDS011;49010;51.230;-2.306;2022-08-07T06:51:28;4.85;;;3.78;;
62915;SDS011;49010;51.230;-2.306;2022-08-07T06:59:20;6.40;;;3.05;;
62915;SDS011;49010;51.230;-2.306;2022-08-07T07:03:26;5.80;;;3.13;;
62915;SDS011;49010;51.230;-2.306;2022-08-07T07:07:28;5.80;;;3.00;;
62915;SDS011;49010;51.230;-2.306;2022-08-07T07:11:30;6.03;;;2.72;;
62915;SDS011;49010;51.230;-2.306;2022-08-07T07:15:33;5.07;;;3.08;;
62915;SDS011;49010;51.230;-2.306;2022-08-07T07:19:28;6.20;;;2.30;;
62915;SDS011;49010;51.230;-2.306;2022-08-07T07:23:33;9.45;;;2.45;;
62915;SDS011;49010;51.230;-2.306;2022-08-07T07:27:35;5.97;;;2.38;;
62915;SDS011;49010;51.230;-2.306;2022-08-07T07:31:43;3.53;;;2.03;;
62915;SDS011;49010;51.230;-2.306;2022-08-07T07:35:29;3.72;;;2.08;;
62915;SDS011;49010;51.230;-2.306;2022-08-07T07:39:32;5.43;;;2.55;;
62915;SDS011;49010;51.230;-2.306;2022-08-07T07:43:37;4.65;;;2.13;;
62915;SDS011;49010;51.230;-2.306;2022-08-07T07:47:43;4.82;;;1.80;;
62915;SDS011;49010;51.230;-2.306;2022-08-07T07:51:33;2.35;;;1.50;;
62915;SDS011;49010;51.230;-2.306;2022-08-07T07:55:37;4.03;;;1.77;;
62915;SDS011;49010;51.230;-2.306;2022-08-07T07:59:35;4.35;;;1.90;;
62915;SDS011;49010;51.230;-2.306;2022-08-07T08:03:34;4.82;;;2.00;;
62915;SDS011;49010;51.230;-2.306;2022-08-07T08:07:38;4.35;;;1.73;;
62915;SDS011;49010;51.230;-2.306;2022-08-07T08:11:39;3.78;;;1.63;;
62915;SDS011;49010;51.230;-2.306;2022-08-07T08:15:43;3.10;;;1.63;;
62915;SDS011;49010;51.230;-2.306;2022-08-07T08:19:40;3.95;;;1.50;;
62915;SDS011;49010;51.230;-2.306;2022-08-07T08:23:43;5.35;;;1.63;;
62915;SDS011;49010;51.230;-2.306;2022-08-07T08:27:45;3.28;;;1.50;;
62915;SDS011;49010;51.230;-2.306;2022-08-07T08:31:43;6.22;;;2.03;;
62915;SDS011;49010;51.230;-2.306;2022-08-07T08:35:49;6.20;;;2.38;;
62915;SDS011;49010;51.230;-2.306;2022-08-07T08:39:36;5.03;;;2.20;;
62915;SDS011;49010;51.230;-2.306;2022-08-07T08:43:45;5.28;;;2.13;;
62915;SDS011;49010;51.230;-2.306;2022-08-07T08:48:02;5.55;;;2.30;;
62915;SDS011;49010;51.230;-2.306;2022-08-07T08:52:21;3.97;;;1.98;;
62915;SDS011;49010;51.230;-2.306;2022-08-07T09:00:15;5.22;;;1.92;;
62915;SDS011;49010;51.230;-2.306;2022-08-07T09:20:41;3.78;;;2.30;;
62915;SDS011;49010;51.230;-2.306;2022-08-07T09:24:49;5.93;;;2.10;;
62915;SDS011;49010;51.230;-2.306;2022-08-07T09:28:58;4.40;;;2.10;;
62915;SDS011;49010;51.230;-2.306;2022-08-07T09:38:08;6.78;;;2.28;;
62915;SDS011;49010;51.230;-2.306;2022-08-07T09:41:35;7.05;;;2.33;;
62915;SDS011;49010;51.230;-2.306;2022-08-07T09:45:46;4.85;;;1.98;;
62915;SDS011;49010;51.230;-2.306;2022-08-07T09:53:59;6.10;;;2.38;;
62915;SDS011;49010;51.230;-2.306;2022-08-07T10:05:37;3.75;;;1.73;;
62915;SDS011;49010;51.230;-2.306;2022-08-07T10:10:02;3.72;;;1.55;;
62915;SDS011;49010;51.230;-2.306;2022-08-07T10:14:26;6.38;;;1.80;;
62915;SDS011;49010;51.230;-2.306;2022-08-07T10:22:57;3.63;;;1.38;;
62915;SDS011;49010;51.230;-2.306;2022-08-07T10:31:50;2.72;;;1.38;;
62915;SDS011;49010;51.230;-2.306;2022-08-07T10:40:11;3.65;;;1.65;;
62915;SDS011;49010;51.230;-2.306;2022-08-07T10:44:05;3.88;;;1.50;;
62915;SDS011;49010;51.230;-2.306;2022-08-07T10:56:10;2.08;;;1.20;;
62915;SDS011;49010;51.230;-2.306;2022-08-07T11:00:15;3.67;;;1.45;;
62915;SDS011;49010;51.230;-2.306;2022-08-07T11:12:39;2.20;;;1.27;;
62915;SDS011;49010;51.230;-2.306;2022-08-07T11:17:13;2.75;;;1.10;;
62915;SDS011;49010;51.230;-2.306;2022-08-07T11:21:36;2.50;;;0.98;;
62915;SDS011;49010;51.230;-2.306;2022-08-07T11:25:31;1.65;;;0.80;;
62915;SDS011;49010;51.230;-2.306;2022-08-07T11:33:43;2.15;;;0.70;;
62915;SDS011;49010;51.230;-2.306;2022-08-07T11:50:10;1.98;;;0.80;;
62915;SDS011;49010;51.230;-2.306;2022-08-07T12:11:25;1.88;;;0.63;;
62915;SDS011;49010;51.230;-2.306;2022-08-07T12:15:25;2.83;;;0.65;;
62915;SDS011;49010;51.230;-2.306;2022-08-07T12:19:50;2.05;;;1.00;;
62915;SDS011;49010;51.230;-2.306;2022-08-07T12:24:09;1.80;;;0.70;;
62915;SDS011;49010;51.230;-2.306;2022-08-07T12:28:26;1.92;;;0.77;;
62915;SDS011;49010;51.230;-2.306;2022-08-07T12:36:32;1.95;;;0.85;;
62915;SDS011;49010;51.230;-2.306;2022-08-07T12:40:24;1.40;;;0.80;;
62915;SDS011;49010;51.230;-2.306;2022-08-07T12:44:28;2.37;;;0.80;;
62915;SDS011;49010;51.230;-2.306;2022-08-07T12:48:23;1.48;;;0.70;;
62915;SDS011;49010;51.230;-2.306;2022-08-07T12:52:37;3.53;;;1.88;;
62915;SDS011;49010;51.230;-2.306;2022-08-07T12:56:33;2.40;;;1.75;;
62915;SDS011;49010;51.230;-2.306;2022-08-07T13:00:20;9.40;;;8.50;;
62915;SDS011;49010;51.230;-2.306;2022-08-07T13:09:08;1.67;;;0.82;;
62915;SDS011;49010;51.230;-2.306;2022-08-07T13:13:39;1.55;;;0.95;;
62915;SDS011;49010;51.230;-2.306;2022-08-07T13:17:41;1.38;;;0.73;;
62915;SDS011;49010;51.230;-2.306;2022-08-07T13:21:31;6.18;;;4.32;;
62915;SDS011;49010;51.230;-2.306;2022-08-07T13:25:42;5.32;;;4.45;;
62915;SDS011;49010;51.230;-2.306;2022-08-07T13:33:37;5.72;;;4.90;;
62915;SDS011;49010;51.230;-2.306;2022-08-07T13:41:53;1.40;;;0.63;;
62915;SDS011;49010;51.230;-2.306;2022-08-07T13:45:45;5.78;;;4.25;;
62915;SDS011;49010;51.230;-2.306;2022-08-07T13:49:52;1.45;;;1.00;;
62915;SDS011;49010;51.230;-2.306;2022-08-07T13:54:04;1.60;;;0.80;;
62915;SDS011;49010;51.230;-2.306;2022-08-07T13:57:49;2.05;;;1.13;;
62915;SDS011;49010;51.230;-2.306;2022-08-07T14:05:45;1.10;;;0.53;;
62915;SDS011;49010;51.230;-2.306;2022-08-07T14:09:30;0.70;;;0.40;;
62915;SDS011;49010;51.230;-2.306;2022-08-07T14:13:34;1.30;;;0.50;;
62915;SDS011;49010;51.230;-2.306;2022-08-07T14:17:25;2.85;;;0.63;;
62915;SDS011;49010;51.230;-2.306;2022-08-07T14:21:32;1.00;;;0.52;;
62915;SDS011;49010;51.230;-2.306;2022-08-07T14:29:29;0.82;;;0.35;;
62915;SDS011;49010;51.230;-2.306;2022-08-07T14:33:35;2.13;;;0.73;;
62915;SDS011;49010;51.230;-2.306;2022-08-07T14:37:25;2.88;;;0.65;;
62915;SDS011;49010;51.230;-2.306;2022-08-07T14:41:25;1.15;;;0.90;;
62915;SDS011;49010;51.230;-2.306;2022-08-07T14:45:31;1.65;;;0.50;;
62915;SDS011;49010;51.230;-2.306;2022-08-07T14:49:30;2.83;;;0.90;;
62915;SDS011;49010;51.230;-2.306;2022-08-07T14:53:39;2.58;;;0.80;;
62915;SDS011;49010;51.230;-2.306;2022-08-07T14:57:45;3.67;;;0.85;;
62915;SDS011;49010;51.230;-2.306;2022-08-07T15:01:39;3.42;;;0.80;;
62915;SDS011;49010;51.230;-2.306;2022-08-07T15:05:31;1.55;;;0.90;;
62915;SDS011;49010;51.230;-2.306;2022-08-07T15:09:14;1.65;;;0.88;;
62915;SDS011;49010;51.230;-2.306;2022-08-07T15:13:19;3.20;;;0.93;;
62915;SDS011;49010;51.230;-2.306;2022-08-07T15:17:28;1.27;;;0.85;;
62915;SDS011;49010;51.230;-2.306;2022-08-07T15:21:35;2.85;;;1.10;;
62915;SDS011;49010;51.230;-2.306;2022-08-07T15:25:44;1.85;;;0.85;;
62915;SDS011;49010;51.230;-2.306;2022-08-07T15:29:33;2.55;;;0.73;;
62915;SDS011;49010;51.230;-2.306;2022-08-07T15:33:38;2.28;;;0.90;;
62915;SDS011;49010;51.230;-2.306;2022-08-07T15:37:24;1.75;;;0.60;;
62915;SDS011;49010;51.230;-2.306;2022-08-07T15:41:30;2.00;;;0.57;;
62915;SDS011;49010;51.230;-2.306;2022-08-07T15:45:38;1.52;;;0.63;;
62915;SDS011;49010;51.230;-2.306;2022-08-07T15:49:42;0.82;;;0.50;;
62915;SDS011;49010;51.230;-2.306;2022-08-07T15:53:50;1.08;;;0.55;;
62915;SDS011;49010;51.230;-2.306;2022-08-07T15:57:34;2.38;;;0.57;;
62915;SDS011;49010;51.230;-2.306;2022-08-07T16:01:34;1.47;;;0.70;;
62915;SDS011;49010;51.230;-2.306;2022-08-07T16:05:20;1.27;;;0.50;;
62915;SDS011;49010;51.230;-2.306;2022-08-07T16:17:43;3.42;;;0.75;;
62915;SDS011;49010;51.230;-2.306;2022-08-07T16:30:51;3.75;;;0.82;;
62915;SDS011;49010;51.230;-2.306;2022-08-07T16:39:28;3.35;;;0.70;;
62915;SDS011;49010;51.230;-2.306;2022-08-07T16:51:49;1.85;;;0.68;;
62915;SDS011;49010;51.230;-2.306;2022-08-07T17:00:32;2.67;;;1.35;;
62915;SDS011;49010;51.230;-2.306;2022-08-07T17:08:05;1.25;;;0.68;;
62915;SDS011;49010;51.230;-2.306;2022-08-07T17:11:54;1.33;;;0.80;;
62915;SDS011;49010;51.230;-2.306;2022-08-07T17:19:47;3.08;;;1.20;;
62915;SDS011;49010;51.230;-2.306;2022-08-07T17:28:08;2.95;;;1.13;;
62915;SDS011;49010;51.230;-2.306;2022-08-07T17:32:01;1.95;;;0.77;;
62915;SDS011;49010;51.230;-2.306;2022-08-07T17:36:16;1.33;;;0.80;;
62915;SDS011;49010;51.230;-2.306;2022-08-07T17:40:18;1.85;;;1.10;;
62915;SDS011;49010;51.230;-2.306;2022-08-07T17:44:20;3.35;;;0.73;;
62915;SDS011;49010;51.230;-2.306;2022-08-07T17:48:25;2.03;;;0.70;;
62915;SDS011;49010;51.230;-2.306;2022-08-07T17:52:12;1.90;;;0.50;;
62915;SDS011;49010;51.230;-2.306;2022-08-07T18:00:11;2.17;;;0.57;;
62915;SDS011;49010;51.230;-2.306;2022-08-07T18:04:33;5.63;;;1.48;;
62915;SDS011;49010;51.230;-2.306;2022-08-07T18:08:33;3.38;;;0.80;;
62915;SDS011;49010;51.230;-2.306;2022-08-07T18:16:56;1.77;;;0.70;;
62915;SDS011;49010;51.230;-2.306;2022-08-07T18:20:56;1.50;;;0.82;;
62915;SDS011;49010;51.230;-2.306;2022-08-07T18:25:10;4.10;;;0.80;;
62915;SDS011;49010;51.230;-2.306;2022-08-07T18:29:25;2.03;;;1.13;;
62915;SDS011;49010;51.230;-2.306;2022-08-07T18:42:16;1.63;;;0.70;;
62915;SDS011;49010;51.230;-2.306;2022-08-07T18:54:29;2.72;;;0.88;;
62915;SDS011;49010;51.230;-2.306;2022-08-07T19:02:42;3.45;;;0.90;;
62915;SDS011;49010;51.230;-2.306;2022-08-07T19:06:49;4.05;;;1.08;;
62915;SDS011;49010;51.230;-2.306;2022-08-07T19:10:37;3.85;;;0.75;;
62915;SDS011;49010;51.230;-2.306;2022-08-07T19:18:43;4.28;;;1.15;;
62915;SDS011;49010;51.230;-2.306;2022-08-07T19:22:38;1.77;;;0.82;;
62915;SDS011;49010;51.230;-2.306;2022-08-07T19:26:41;2.25;;;0.90;;
62915;SDS011;49010;51.230;-2.306;2022-08-07T19:30:45;3.60;;;0.80;;
62915;SDS011;49010;51.230;-2.306;2022-08-07T19:34:51;2.00;;;0.90;;
62915;SDS011;49010;51.230;-2.306;2022-08-07T19:38:37;2.95;;;1.00;;
62915;SDS011;49010;51.230;-2.306;2022-08-07T19:42:37;2.40;;;0.90;;
62915;SDS011;49010;51.230;-2.306;2022-08-07T19:46:25;1.48;;;0.70;;
62915;SDS011;49010;51.230;-2.306;2022-08-07T19:50:15;2.28;;;0.90;;
62915;SDS011;49010;51.230;-2.306;2022-08-07T19:54:20;4.10;;;1.17;;
62915;SDS011;49010;51.230;-2.306;2022-08-07T19:58:25;5.82;;;1.33;;
62915;SDS011;49010;51.230;-2.306;2022-08-07T20:02:10;3.92;;;1.73;;
62915;SDS011;49010;51.230;-2.306;2022-08-07T20:06:10;2.95;;;1.50;;
62915;SDS011;49010;51.230;-2.306;2022-08-07T20:09:55;3.38;;;1.40;;
62915;SDS011;49010;51.230;-2.306;2022-08-07T20:13:59;2.85;;;1.10;;
62915;SDS011;49010;51.230;-2.306;2022-08-07T20:17:47;5.13;;;1.40;;
62915;SDS011;49010;51.230;-2.306;2022-08-07T20:21:44;2.88;;;1.27;;
62915;SDS011;49010;51.230;-2.306;2022-08-07T20:25:28;3.00;;;1.40;;
62915;SDS011;49010;51.230;-2.306;2022-08-07T20:29:21;5.50;;;1.35;;
62915;SDS011;49010;51.230;-2.306;2022-08-07T20:33:27;5.40;;;1.48;;
62915;SDS011;49010;51.230;-2.306;2022-08-07T20:37:26;3.30;;;1.52;;
62915;SDS011;49010;51.230;-2.306;2022-08-07T20:41:30;2.83;;;1.17;;
62915;SDS011;49010;51.230;-2.306;2022-08-07T20:45:21;5.65;;;1.85;;
62915;SDS011;49010;51.230;-2.306;2022-08-07T20:49:24;4.05;;;1.60;;
62915;SDS011;49010;51.230;-2.306;2022-08-07T20:53:30;2.50;;;1.33;;
62915;SDS011;49010;51.230;-2.306;2022-08-07T20:57:39;2.97;;;1.80;;
62915;SDS011;49010;51.230;-2.306;2022-08-07T21:01:42;3.47;;;1.70;;
62915;SDS011;49010;51.230;-2.306;2022-08-07T21:06:24;3.63;;;1.60;;
62915;SDS011;49010;51.230;-2.306;2022-08-07T21:10:07;3.15;;;1.80;;
62915;SDS011;49010;51.230;-2.306;2022-08-07T21:13:52;3.73;;;1.90;;
62915;SDS011;49010;51.230;-2.306;2022-08-07T21:17:56;3.88;;;1.55;;
62915;SDS011;49010;51.230;-2.306;2022-08-07T21:22:05;5.53;;;1.60;;
62915;SDS011;49010;51.230;-2.306;2022-08-07T21:30:16;4.00;;;1.50;;
62915;SDS011;49010;51.230;-2.306;2022-08-07T21:45:48;5.43;;;2.10;;
62915;SDS011;49010;51.230;-2.306;2022-08-07T21:50:14;3.40;;;1.85;;
62915;SDS011;49010;51.230;-2.306;2022-08-07T21:54:15;7.57;;;1.90;;
62915;SDS011;49010;51.230;-2.306;2022-08-07T21:58:11;5.30;;;2.10;;
62915;SDS011;49010;51.230;-2.306;2022-08-07T22:02:17;4.80;;;2.47;;
62915;SDS011;49010;51.230;-2.306;2022-08-07T22:06:26;6.00;;;2.50;;
62915;SDS011;49010;51.230;-2.306;2022-08-07T22:10:16;4.03;;;2.42;;
62915;SDS011;49010;51.230;-2.306;2022-08-07T22:14:00;3.47;;;1.83;;
62915;SDS011;49010;51.230;-2.306;2022-08-07T22:17:56;5.88;;;2.10;;
62915;SDS011;49010;51.230;-2.306;2022-08-07T22:26:12;3.92;;;1.83;;
62915;SDS011;49010;51.230;-2.306;2022-08-07T22:30:14;3.95;;;1.90;;
62915;SDS011;49010;51.230;-2.306;2022-08-07T22:34:05;8.00;;;2.03;;
62915;SDS011;49010;51.230;-2.306;2022-08-07T22:37:59;4.20;;;2.08;;
62915;SDS011;49010;51.230;-2.306;2022-08-07T22:42:12;5.80;;;2.22;;
62915;SDS011;49010;51.230;-2.306;2022-08-07T23:02:15;4.95;;;2.42;;
62915;SDS011;49010;51.230;-2.306;2022-08-07T23:06:15;4.25;;;1.95;;
62915;SDS011;49010;51.230;-2.306;2022-08-07T23:27:54;4.68;;;2.03;;
62915;SDS011;49010;51.230;-2.306;2022-08-07T23:36:23;3.30;;;1.90;;
62915;SDS011;49010;51.230;-2.306;2022-08-07T23:41:31;3.50;;;1.80;;
62915;SDS011;49010;51.230;-2.306;2022-08-07T23:45:41;5.15;;;1.92;;
62915;SDS011;49010;51.230;-2.306;2022-08-07T23:53:40;5.68;;;1.65;;
62915;SDS011;49010;51.230;-2.306;2022-08-07T23:57:39;4.68;;;2.47;;
